Time;durP1;ratioP1;P1;durP2;ratioP2;P2;SDS_P1;SDS_P2;PMS_P1;PMS_P2;Temp;Humidity;BMP_temperature;BMP_pressure;BME280_temperature;BME280_humidity;BME280_pressure;Samples;Min_cycle;Max_cycle;Signal;HPM_P1;HPM_P2
2022/03/09 00:00:01;;;;;;;16.77;10.15;;;;;;;;;;4988659;28;97300;-74
2022/03/09 00:02:36;;;;;;;15.63;9.95;;;;;;;;;;4982908;28;95828;-74
2022/03/09 00:05:07;;;;;;;16.23;9.70;;;;;;;;;;5003678;28;95273;-75
2022/03/09 00:07:40;;;;;;;18.35;9.68;;;;;;;;;;4994505;28;96464;-74
2022/03/09 00:10:16;;;;;;;20.95;10.30;;;;;;;;;;4994063;28;95412;-75
2022/03/09 00:12:43;;;;;;;16.92;9.38;;;;;;;;;;4987086;28;97406;-75
2022/03/09 00:15:13;;;;;;;18.85;10.98;;;;;;;;;;4990827;28;95449;-74
2022/03/09 00:17:51;;;;;;;19.95;10.00;;;;;;;;;;4989217;28;96143;-75
2022/03/09 00:20:23;;;;;;;17.83;10.55;;;;;;;;;;4989216;28;96687;-76
2022/03/09 00:22:52;;;;;;;16.63;9.63;;;;;;;;;;4987973;28;95512;-76
2022/03/09 00:25:23;;;;;;;17.93;9.57;;;;;;;;;;4968843;28;97108;-75
2022/03/09 00:27:57;;;;;;;17.67;9.95;;;;;;;;;;4968590;28;96285;-75
2022/03/09 00:30:24;;;;;;;17.58;9.32;;;;;;;;;;4987487;28;96158;-75
2022/03/09 00:32:54;;;;;;;16.90;9.68;;;;;;;;;;4983986;28;96327;-75
2022/03/09 00:35:22;;;;;;;20.23;9.43;;;;;;;;;;4971628;28;95236;-76
2022/03/09 00:37:49;;;;;;;17.80;9.40;;;;;;;;;;4998329;28;96131;-75
2022/03/09 00:40:17;;;;;;;17.17;9.98;;;;;;;;;;5002651;28;97535;-75
2022/03/09 00:42:44;;;;;;;18.85;9.95;;;;;;;;;;4970562;28;95548;-75
2022/03/09 00:45:14;;;;;;;22.17;9.73;;;;;;;;;;4967363;28;95828;-74
2022/03/09 00:47:42;;;;;;;16.25;9.63;;;;;;;;;;4967419;28;97353;-75
2022/03/09 00:50:09;;;;;;;23.65;9.80;;;;;;;;;;4976508;28;97126;-75
2022/03/09 00:52:36;;;;;;;22.23;10.40;;;;;;;;;;5006280;28;97982;-75
2022/03/09 00:55:02;;;;;;;19.20;9.98;;;;;;;;;;5008183;28;95742;-75
2022/03/09 00:57:28;;;;;;;16.02;9.68;;;;;;;;;;5009526;28;96793;-75
2022/03/09 00:59:55;;;;;;;19.40;9.80;;;;;;;;;;5011365;28;97487;-75
2022/03/09 01:02:21;;;;;;;19.27;10.05;;;;;;;;;;4994081;28;95747;-75
2022/03/09 01:04:48;;;;;;;20.50;9.68;;;;;;;;;;4983051;28;95832;-74
2022/03/09 01:07:14;;;;;;;16.85;10.15;;;;;;;;;;4991254;28;97608;-77
2022/03/09 01:09:41;;;;;;;18.23;9.95;;;;;;;;;;4991233;28;95459;-76
2022/03/09 01:12:07;;;;;;;17.08;9.50;;;;;;;;;;4989768;28;96879;-76
2022/03/09 01:14:33;;;;;;;20.75;10.55;;;;;;;;;;4993911;28;97480;-76
2022/03/09 01:17:00;;;;;;;19.60;9.52;;;;;;;;;;4991310;28;96793;-76
2022/03/09 01:19:29;;;;;;;21.40;9.05;;;;;;;;;;4991344;28;96568;-76
2022/03/09 01:21:55;;;;;;;17.73;9.88;;;;;;;;;;4996828;28;96080;-74
2022/03/09 01:24:22;;;;;;;19.08;10.30;;;;;;;;;;4990132;28;96487;-74
2022/03/09 01:26:48;;;;;;;18.08;9.85;;;;;;;;;;4990790;28;97497;-74
2022/03/09 01:29:14;;;;;;;18.33;10.27;;;;;;;;;;4991058;28;95468;-75
2022/03/09 01:31:41;;;;;;;18.80;9.75;;;;;;;;;;4991298;28;97404;-75
2022/03/09 01:34:07;;;;;;;16.55;9.85;;;;;;;;;;4972947;28;97323;-74
2022/03/09 01:36:34;;;;;;;22.00;11.25;;;;;;;;;;4991079;28;95275;-74
2022/03/09 01:39:00;;;;;;;20.60;10.18;;;;;;;;;;5010444;28;97680;-74
2022/03/09 01:41:26;;;;;;;20.50;10.68;;;;;;;;;;4998402;28;95123;-75
2022/03/09 01:44:05;;;;;;;17.90;10.65;;;;;;;;;;4990633;28;96881;-74
2022/03/09 01:46:32;;;;;;;18.60;10.43;;;;;;;;;;4990813;28;97450;-75
2022/03/09 01:48:59;;;;;;;21.20;10.50;;;;;;;;;;4990109;28;95650;-75
2022/03/09 01:51:25;;;;;;;22.58;10.93;;;;;;;;;;4999708;28;96723;-73
2022/03/09 01:53:53;;;;;;;19.20;10.50;;;;;;;;;;4997068;28;97310;-77
2022/03/09 01:56:19;;;;;;;19.02;11.05;;;;;;;;;;4989696;28;95409;-76
2022/03/09 01:58:46;;;;;;;20.52;10.73;;;;;;;;;;4993700;28;96764;-76
2022/03/09 02:01:12;;;;;;;22.17;10.43;;;;;;;;;;4990662;28;95309;-75
2022/03/09 02:03:39;;;;;;;21.95;10.60;;;;;;;;;;4982981;28;97201;-76
2022/03/09 02:06:06;;;;;;;18.35;10.13;;;;;;;;;;4987095;28;97224;-76
2022/03/09 02:11:18;;;;;;;17.67;10.30;;;;;;;;;;4990339;28;96766;-74
2022/03/09 02:13:44;;;;;;;21.60;11.65;;;;;;;;;;4989699;28;97295;-75
2022/03/09 02:16:13;;;;;;;19.88;11.38;;;;;;;;;;4983459;28;95436;-75
2022/03/09 02:18:39;;;;;;;19.15;11.02;;;;;;;;;;5016168;28;97183;-76
2022/03/09 02:21:10;;;;;;;26.08;11.55;;;;;;;;;;4993135;28;97234;-75
2022/03/09 02:23:39;;;;;;;22.15;12.15;;;;;;;;;;4999595;28;96909;-74
2022/03/09 02:26:06;;;;;;;18.92;11.68;;;;;;;;;;4989747;28;97322;-73
2022/03/09 02:28:40;;;;;;;26.83;11.23;;;;;;;;;;4990209;28;96216;-73
2022/03/09 02:31:06;;;;;;;22.20;11.30;;;;;;;;;;4989660;28;97090;-74
2022/03/09 02:33:33;;;;;;;18.60;11.40;;;;;;;;;;4990199;28;97582;-75
2022/03/09 02:35:59;;;;;;;19.70;11.20;;;;;;;;;;4970771;28;95321;-74
2022/03/09 02:38:26;;;;;;;21.67;11.38;;;;;;;;;;4992933;28;97118;-74
2022/03/09 02:40:52;;;;;;;20.40;10.88;;;;;;;;;;4993219;28;97363;-74
2022/03/09 02:43:19;;;;;;;19.70;11.30;;;;;;;;;;4986133;28;96818;-76
2022/03/09 02:45:45;;;;;;;20.60;10.93;;;;;;;;;;4969780;28;97548;-76
2022/03/09 02:48:11;;;;;;;18.27;10.88;;;;;;;;;;5008937;28;95837;-77
2022/03/09 02:50:38;;;;;;;18.80;10.65;;;;;;;;;;4989989;28;96851;-74
2022/03/09 02:53:04;;;;;;;20.40;11.68;;;;;;;;;;4988830;28;97390;-74
2022/03/09 02:55:30;;;;;;;21.17;11.10;;;;;;;;;;4995588;28;95535;-75
2022/03/09 02:57:57;;;;;;;23.30;12.07;;;;;;;;;;5009611;28;96724;-74
2022/03/09 03:00:26;;;;;;;24.48;11.65;;;;;;;;;;5009651;28;96084;-73
2022/03/09 03:02:52;;;;;;;18.77;11.40;;;;;;;;;;5013072;28;95452;-75
2022/03/09 03:05:19;;;;;;;25.48;11.55;;;;;;;;;;4973491;28;97581;-74
2022/03/09 03:07:45;;;;;;;25.23;11.52;;;;;;;;;;4983080;28;95737;-74
2022/03/09 03:10:11;;;;;;;18.00;10.48;;;;;;;;;;4994506;28;96734;-76
2022/03/09 03:12:38;;;;;;;23.25;11.45;;;;;;;;;;5009106;28;97693;-75
2022/03/09 03:15:05;;;;;;;22.77;12.32;;;;;;;;;;4984155;28;95719;-75
2022/03/09 03:17:36;;;;;;;21.42;11.45;;;;;;;;;;4969794;28;96842;-76
2022/03/09 03:20:03;;;;;;;26.48;12.00;;;;;;;;;;4968311;28;97419;-75
2022/03/09 03:22:29;;;;;;;20.63;10.95;;;;;;;;;;4985176;28;95579;-76
2022/03/09 03:24:55;;;;;;;21.25;11.30;;;;;;;;;;4997315;28;97036;-77
2022/03/09 03:27:22;;;;;;;23.73;11.32;;;;;;;;;;5008788;28;95251;-76
2022/03/09 03:29:49;;;;;;;19.08;10.57;;;;;;;;;;5009418;28;97168;-75
2022/03/09 03:32:15;;;;;;;26.13;11.75;;;;;;;;;;5007683;28;97195;-76
2022/03/09 03:34:41;;;;;;;24.75;11.45;;;;;;;;;;4994609;28;95579;-75
2022/03/09 03:37:08;;;;;;;21.60;11.93;;;;;;;;;;4988461;28;96807;-75
2022/03/09 03:39:34;;;;;;;25.48;11.85;;;;;;;;;;4993778;28;97529;-74
2022/03/09 03:42:00;;;;;;;21.65;11.15;;;;;;;;;;5008489;28;95530;-76
2022/03/09 03:44:27;;;;;;;21.52;11.63;;;;;;;;;;5006391;28;96843;-76
2022/03/09 03:46:53;;;;;;;24.00;11.35;;;;;;;;;;4992249;28;97295;-75
2022/03/09 03:49:20;;;;;;;22.05;11.48;;;;;;;;;;4988303;28;97115;-75
2022/03/09 03:51:46;;;;;;;19.33;11.60;;;;;;;;;;4988642;28;96931;-76
2022/03/09 03:54:12;;;;;;;21.15;11.82;;;;;;;;;;4992788;28;95486;-75
2022/03/09 03:56:38;;;;;;;25.27;12.40;;;;;;;;;;4988387;28;97090;-75
2022/03/09 03:59:05;;;;;;;21.73;12.13;;;;;;;;;;4988527;28;97384;-76
2022/03/09 04:01:31;;;;;;;23.75;11.55;;;;;;;;;;4988670;28;95312;-76
2022/03/09 04:03:59;;;;;;;22.00;12.52;;;;;;;;;;4988504;28;97089;-76
2022/03/09 04:06:27;;;;;;;23.13;11.82;;;;;;;;;;4970703;28;96104;-76
2022/03/09 04:08:54;;;;;;;20.92;11.07;;;;;;;;;;4978769;28;95416;-75
2022/03/09 04:11:21;;;;;;;20.67;11.65;;;;;;;;;;5008026;28;97328;-76
2022/03/09 04:13:47;;;;;;;25.30;11.70;;;;;;;;;;5008649;28;95517;-75
2022/03/09 04:16:14;;;;;;;22.58;12.18;;;;;;;;;;4994087;28;96787;-75
2022/03/09 04:18:40;;;;;;;21.05;11.60;;;;;;;;;;4988313;28;97479;-75
2022/03/09 04:21:06;;;;;;;24.48;11.52;;;;;;;;;;4988519;28;95188;-75
2022/03/09 04:23:33;;;;;;;20.33;12.07;;;;;;;;;;4987252;28;95992;-76
2022/03/09 04:26:06;;;;;;;24.58;12.27;;;;;;;;;;4988305;28;97748;-76
2022/03/09 04:28:33;;;;;;;29.55;12.55;;;;;;;;;;5004310;28;95715;-76
2022/03/09 04:31:00;;;;;;;21.25;11.50;;;;;;;;;;5010721;28;97141;-75
2022/03/09 04:33:26;;;;;;;22.75;12.45;;;;;;;;;;5007561;28;95759;-75
2022/03/09 04:35:52;;;;;;;22.77;11.45;;;;;;;;;;4991984;28;96562;-75
2022/03/09 04:38:19;;;;;;;21.33;11.88;;;;;;;;;;4991055;28;97276;-76
2022/03/09 04:40:45;;;;;;;20.98;11.65;;;;;;;;;;4992136;28;95268;-75
2022/03/09 04:43:11;;;;;;;23.17;11.82;;;;;;;;;;5003991;28;96861;-74
2022/03/09 04:45:37;;;;;;;26.45;12.35;;;;;;;;;;4991298;28;97686;-74
2022/03/09 04:48:04;;;;;;;23.35;11.85;;;;;;;;;;4991615;28;95745;-74
2022/03/09 04:50:30;;;;;;;25.27;12.43;;;;;;;;;;4976756;28;97376;-76
2022/03/09 04:52:56;;;;;;;22.80;12.18;;;;;;;;;;4991759;28;95759;-76
2022/03/09 04:55:23;;;;;;;30.73;11.40;;;;;;;;;;4976263;28;97877;-76
2022/03/09 04:57:49;;;;;;;22.98;12.65;;;;;;;;;;4974118;28;97560;-77
2022/03/09 05:00:17;;;;;;;25.63;11.55;;;;;;;;;;5003024;28;95656;-76
2022/03/09 05:02:44;;;;;;;22.77;11.75;;;;;;;;;;4991611;28;97157;-76
2022/03/09 05:05:10;;;;;;;20.90;11.45;;;;;;;;;;4990957;28;97396;-76
2022/03/09 05:07:40;;;;;;;20.60;11.20;;;;;;;;;;4991705;28;95784;-78
2022/03/09 05:10:08;;;;;;;26.88;12.05;;;;;;;;;;4990852;28;96584;-77
2022/03/09 05:12:34;;;;;;;20.35;11.90;;;;;;;;;;4988731;28;97352;-78
2022/03/09 05:15:00;;;;;;;22.30;11.75;;;;;;;;;;5006163;28;97111;-77
2022/03/09 05:17:27;;;;;;;22.70;11.60;;;;;;;;;;5011134;28;97417;-78
2022/03/09 05:19:53;;;;;;;24.08;12.30;;;;;;;;;;5011040;28;95633;-77
2022/03/09 05:22:19;;;;;;;25.50;12.60;;;;;;;;;;5007232;28;97383;-77
2022/03/09 05:24:51;;;;;;;23.17;11.00;;;;;;;;;;4991170;28;97726;-76
2022/03/09 05:27:17;;;;;;;22.65;11.27;;;;;;;;;;4990649;28;95731;-77
2022/03/09 05:29:43;;;;;;;25.70;12.25;;;;;;;;;;5008092;28;96833;-76
2022/03/09 05:32:10;;;;;;;20.33;11.32;;;;;;;;;;5010763;28;97211;-75
2022/03/09 05:34:37;;;;;;;23.95;11.63;;;;;;;;;;4976014;28;95800;-74
2022/03/09 05:37:04;;;;;;;26.50;11.73;;;;;;;;;;4970839;28;97051;-75
2022/03/09 05:39:30;;;;;;;24.25;11.48;;;;;;;;;;4971308;28;95905;-75
2022/03/09 05:41:56;;;;;;;20.33;11.15;;;;;;;;;;4970623;28;96128;-74
2022/03/09 05:44:23;;;;;;;21.27;11.60;;;;;;;;;;4985991;28;97348;-75
2022/03/09 05:46:50;;;;;;;20.80;11.45;;;;;;;;;;4990478;28;95628;-77
2022/03/09 05:49:17;;;;;;;20.58;10.85;;;;;;;;;;4990409;28;95882;-78
2022/03/09 05:51:43;;;;;;;23.35;10.80;;;;;;;;;;4990976;28;97436;-78
2022/03/09 05:54:09;;;;;;;19.70;10.70;;;;;;;;;;4989544;28;95292;-75
2022/03/09 05:56:36;;;;;;;33.17;11.68;;;;;;;;;;4983145;28;96781;-79
2022/03/09 05:59:02;;;;;;;22.73;11.45;;;;;;;;;;4995501;28;95893;-78
2022/03/09 06:01:28;;;;;;;21.85;10.93;;;;;;;;;;5002685;28;95837;-74
2022/03/09 18:58:41;;;;;;;42.45;18.60;;;;;;;;;;5043455;27;96326;-74
2022/03/09 19:01:08;;;;;;;44.33;19.95;;;;;;;;;;5044471;27;95207;-74
2022/03/09 19:03:35;;;;;;;40.50;18.25;;;;;;;;;;5044429;27;97007;-73
2022/03/09 19:06:02;;;;;;;37.35;19.73;;;;;;;;;;5043880;27;97291;-74
2022/03/09 19:08:28;;;;;;;39.90;20.00;;;;;;;;;;5044121;27;96489;-74
2022/03/09 19:10:54;;;;;;;37.85;19.60;;;;;;;;;;5044887;27;96623;-74
2022/03/09 19:13:21;;;;;;;43.70;20.88;;;;;;;;;;5044337;27;97412;-74
2022/03/09 19:15:47;;;;;;;42.03;21.45;;;;;;;;;;5046584;27;95383;-74
2022/03/09 19:18:31;;;;;;;46.97;22.67;;;;;;;;;;5042923;27;95745;-74
2022/03/09 19:20:58;;;;;;;41.20;21.35;;;;;;;;;;5045088;27;95166;-74
2022/03/09 19:23:24;;;;;;;44.40;22.90;;;;;;;;;;5044369;27;96885;-74
2022/03/09 19:25:50;;;;;;;46.38;22.45;;;;;;;;;;5044130;27;97338;-74
2022/03/09 19:28:17;;;;;;;44.88;22.58;;;;;;;;;;5043998;27;95471;-74
2022/03/09 19:30:43;;;;;;;53.28;23.20;;;;;;;;;;5043370;27;95852;-74
2022/03/09 19:33:11;;;;;;;55.88;23.27;;;;;;;;;;5042447;27;96323;-74
2022/03/09 19:35:38;;;;;;;46.90;22.40;;;;;;;;;;5044114;27;96153;-73
2022/03/09 19:38:05;;;;;;;45.55;23.45;;;;;;;;;;5046606;27;96657;-73
2022/03/09 19:40:32;;;;;;;47.78;21.08;;;;;;;;;;5036637;27;95372;-73
2022/03/09 19:42:58;;;;;;;42.10;20.70;;;;;;;;;;5044095;27;95543;-73
2022/03/09 19:45:43;;;;;;;49.15;21.05;;;;;;;;;;5043573;27;97335;-73
2022/03/09 19:48:09;;;;;;;47.00;21.40;;;;;;;;;;5037009;27;95396;-73
2022/03/09 19:50:36;;;;;;;40.50;21.38;;;;;;;;;;5044175;27;97402;-73
2022/03/09 19:53:02;;;;;;;51.13;22.58;;;;;;;;;;5043611;27;97715;-74
2022/03/09 19:55:29;;;;;;;45.22;21.85;;;;;;;;;;5024667;27;95402;-73
2022/03/09 20:00:41;;;;;;;47.22;22.95;;;;;;;;;;5046724;27;97129;-73
2022/03/09 20:03:07;;;;;;;48.97;22.08;;;;;;;;;;5044038;27;96631;-72
2022/03/09 20:05:34;;;;;;;44.45;22.98;;;;;;;;;;5038747;27;96318;-74
2022/03/09 20:08:04;;;;;;;50.70;23.13;;;;;;;;;;5029977;28;95801;-73
2022/03/09 20:10:48;;;;;;;39.90;21.75;;;;;;;;;;5028174;28;95243;-74
2022/03/09 20:13:14;;;;;;;45.30;22.70;;;;;;;;;;5029188;28;97894;-74
2022/03/09 20:15:41;;;;;;;47.10;23.75;;;;;;;;;;5029605;27;95440;-74
2022/03/09 20:18:07;;;;;;;49.33;23.77;;;;;;;;;;5027213;28;96063;-74
2022/03/09 20:20:33;;;;;;;69.72;32.08;;;;;;;;;;5023827;27;97582;-74
2022/03/09 20:23:00;;;;;;;65.28;30.35;;;;;;;;;;5033158;27;95621;-74
2022/03/09 20:25:26;;;;;;;71.22;34.10;;;;;;;;;;5027182;28;97358;-74
2022/03/09 20:27:53;;;;;;;69.95;31.92;;;;;;;;;;5029962;27;95678;-74
2022/03/09 20:30:19;;;;;;;68.38;32.08;;;;;;;;;;5029244;27;95881;-74
2022/03/09 20:32:45;;;;;;;74.72;32.58;;;;;;;;;;5029764;28;97463;-74
2022/03/09 20:35:12;;;;;;;69.78;31.33;;;;;;;;;;5028531;28;95628;-74
2022/03/09 20:37:42;;;;;;;63.75;29.45;;;;;;;;;;5029784;28;96651;-74
2022/03/09 20:40:08;;;;;;;54.78;27.63;;;;;;;;;;5026772;28;97363;-72
2022/03/09 20:42:35;;;;;;;51.38;27.38;;;;;;;;;;5029525;27;95555;-74
2022/03/09 20:45:01;;;;;;;53.42;27.25;;;;;;;;;;5032689;28;96855;-74
2022/03/09 20:47:27;;;;;;;52.42;26.10;;;;;;;;;;5028514;28;95550;-73
2022/03/09 20:49:55;;;;;;;57.35;25.98;;;;;;;;;;5029171;28;96793;-73
2022/03/09 20:52:21;;;;;;;59.28;26.90;;;;;;;;;;5028570;27;97409;-75
2022/03/09 20:54:48;;;;;;;49.60;25.30;;;;;;;;;;5027907;28;95311;-75
2022/03/09 20:57:14;;;;;;;51.42;25.75;;;;;;;;;;5029679;28;96765;-74
2022/03/09 20:59:40;;;;;;;48.97;24.92;;;;;;;;;;5028530;27;96356;-74
2022/03/09 21:02:07;;;;;;;48.67;25.58;;;;;;;;;;5028569;28;96939;-74
2022/03/09 21:04:34;;;;;;;53.28;26.35;;;;;;;;;;5027744;28;95862;-74
2022/03/09 21:07:01;;;;;;;61.90;26.85;;;;;;;;;;5027145;28;95788;-74
2022/03/09 21:09:27;;;;;;;47.08;23.50;;;;;;;;;;5027961;27;95979;-74
2022/03/09 21:11:53;;;;;;;55.65;29.48;;;;;;;;;;5027923;28;97101;-74
2022/03/09 21:14:37;;;;;;;48.97;25.52;;;;;;;;;;5023218;28;95832;-74
2022/03/09 21:17:03;;;;;;;51.83;24.92;;;;;;;;;;5027084;27;97014;-73
2022/03/09 21:19:32;;;;;;;46.85;24.08;;;;;;;;;;5025248;28;97290;-73
2022/03/09 21:21:59;;;;;;;53.95;25.00;;;;;;;;;;5029203;28;95339;-73
2022/03/09 21:25:04;;;;;;;51.95;23.77;;;;;;;;;;5021148;28;96796;-73
2022/03/09 21:27:11;;;;;;;49.45;24.30;;;;;;;;;;5028377;28;96783;-73
2022/03/09 21:29:38;;;;;;;50.40;25.35;;;;;;;;;;5028719;27;96563;-73
2022/03/09 21:32:04;;;;;;;56.22;25.40;;;;;;;;;;5028482;27;97436;-73
2022/03/09 21:34:31;;;;;;;65.90;32.28;;;;;;;;;;5027918;27;95450;-73
2022/03/09 21:36:57;;;;;;;80.43;37.08;;;;;;;;;;5027507;28;96630;-73
2022/03/09 21:39:23;;;;;;;67.85;30.75;;;;;;;;;;5026426;28;97687;-72
2022/03/09 21:41:49;;;;;;;60.97;30.27;;;;;;;;;;5026523;28;95763;-72
2022/03/09 21:44:16;;;;;;;56.10;28.25;;;;;;;;;;5028647;28;96785;-72
2022/03/09 21:46:42;;;;;;;51.70;27.42;;;;;;;;;;5029526;28;97725;-73
2022/03/09 21:49:08;;;;;;;54.03;26.88;;;;;;;;;;5030765;28;95571;-73
2022/03/09 21:51:35;;;;;;;55.17;26.23;;;;;;;;;;5028790;28;97323;-73
2022/03/09 21:54:01;;;;;;;59.13;28.08;;;;;;;;;;5028291;28;95921;-74
2022/03/09 21:56:27;;;;;;;54.58;28.55;;;;;;;;;;5028893;28;96788;-72
2022/03/09 21:59:11;;;;;;;59.78;28.95;;;;;;;;;;5024645;28;97001;-73
2022/03/09 22:01:37;;;;;;;49.90;27.02;;;;;;;;;;5027268;28;95343;-73
2022/03/09 22:04:21;;;;;;;56.00;26.30;;;;;;;;;;5028528;28;95254;-74
2022/03/09 22:06:48;;;;;;;51.22;25.88;;;;;;;;;;5026583;28;97664;-74
2022/03/09 22:09:14;;;;;;;57.72;27.38;;;;;;;;;;5027177;28;96557;-73
2022/03/09 22:11:40;;;;;;;48.53;25.33;;;;;;;;;;5028816;28;96734;-73
2022/03/09 22:14:08;;;;;;;51.25;26.20;;;;;;;;;;5011403;28;95359;-74
2022/03/09 22:16:34;;;;;;;60.70;28.88;;;;;;;;;;5025565;28;95596;-75
2022/03/09 22:19:20;;;;;;;52.22;26.40;;;;;;;;;;5027426;27;97356;-73
2022/03/09 22:22:04;;;;;;;49.55;25.05;;;;;;;;;;5020001;28;95856;-73
2022/03/09 22:24:48;;;;;;;53.28;25.60;;;;;;;;;;5025382;28;95202;-75
2022/03/09 22:27:32;;;;;;;61.45;32.17;;;;;;;;;;5025231;27;95597;-74
2022/03/09 22:29:58;;;;;;;51.33;26.10;;;;;;;;;;5026723;28;96721;-74
2022/03/09 22:32:24;;;;;;;51.38;25.55;;;;;;;;;;5028461;28;96751;-75
2022/03/09 22:34:51;;;;;;;46.95;23.70;;;;;;;;;;5030514;28;97452;-73
2022/03/09 22:37:17;;;;;;;49.83;23.00;;;;;;;;;;5027785;28;96543;-73
2022/03/09 22:40:01;;;;;;;47.55;23.50;;;;;;;;;;5027088;28;95889;-72
2022/03/09 22:42:27;;;;;;;47.83;24.70;;;;;;;;;;5025947;27;96351;-73
2022/03/09 22:44:54;;;;;;;46.42;23.60;;;;;;;;;;5027084;28;96795;-73
2022/03/09 22:47:20;;;;;;;58.03;26.40;;;;;;;;;;5027119;28;97329;-73
2022/03/09 22:49:46;;;;;;;49.83;22.67;;;;;;;;;;5027678;28;95293;-73
2022/03/09 22:52:15;;;;;;;44.38;22.60;;;;;;;;;;5027517;27;95872;-74
2022/03/09 22:54:42;;;;;;;46.03;22.52;;;;;;;;;;5026279;27;97345;-73
2022/03/09 22:57:11;;;;;;;49.00;22.60;;;;;;;;;;5030753;27;95525;-73
2022/03/09 22:59:37;;;;;;;43.42;22.33;;;;;;;;;;5027363;28;97589;-73
2022/03/09 23:02:03;;;;;;;47.95;22.65;;;;;;;;;;5026462;27;95427;-74
2022/03/09 23:04:30;;;;;;;45.15;22.50;;;;;;;;;;5026352;27;96762;-74
2022/03/09 23:06:56;;;;;;;43.70;20.98;;;;;;;;;;5025394;28;97039;-74
2022/03/09 23:09:23;;;;;;;40.15;21.63;;;;;;;;;;5027602;27;95222;-74
2022/03/09 23:11:49;;;;;;;49.70;23.35;;;;;;;;;;5027861;28;96960;-74
2022/03/09 23:14:15;;;;;;;46.72;22.02;;;;;;;;;;5026873;28;97388;-74
2022/03/09 23:16:42;;;;;;;44.03;23.05;;;;;;;;;;5027175;28;95798;-75
2022/03/09 23:19:08;;;;;;;51.17;24.13;;;;;;;;;;5024614;28;97866;-72
2022/03/09 23:21:34;;;;;;;53.25;23.88;;;;;;;;;;5026170;27;95465;-72
2022/03/09 23:24:01;;;;;;;54.92;23.98;;;;;;;;;;5025208;28;97082;-73
2022/03/09 23:26:27;;;;;;;48.85;22.58;;;;;;;;;;5027381;28;97819;-73
2022/03/09 23:28:53;;;;;;;46.15;23.23;;;;;;;;;;5027725;28;95618;-73
2022/03/09 23:31:20;;;;;;;46.90;23.90;;;;;;;;;;5027348;28;96051;-73
2022/03/09 23:33:46;;;;;;;51.33;24.85;;;;;;;;;;5027871;27;96308;-73
2022/03/09 23:36:12;;;;;;;57.47;25.75;;;;;;;;;;5027117;28;95530;-73
2022/03/09 23:38:56;;;;;;;52.03;24.65;;;;;;;;;;5030100;28;95259;-73
2022/03/09 23:41:22;;;;;;;50.33;23.48;;;;;;;;;;5028491;27;95771;-74
2022/03/09 23:44:06;;;;;;;48.08;23.33;;;;;;;;;;5030414;28;95527;-73
2022/03/09 23:46:33;;;;;;;47.83;24.85;;;;;;;;;;5031244;28;97582;-73
2022/03/09 23:49:00;;;;;;;48.28;24.10;;;;;;;;;;5030812;27;95376;-73
2022/03/09 23:51:26;;;;;;;49.47;24.77;;;;;;;;;;5030785;28;97233;-73
2022/03/09 23:53:52;;;;;;;52.47;24.35;;;;;;;;;;5029104;28;97331;-72
2022/03/09 23:56:19;;;;;;;50.45;25.10;;;;;;;;;;5030936;28;95284;-73
2022/03/09 23:58:45;;;;;;;50.13;24.35;;;;;;;;;;5030769;27;96876;-73
